createdAt,value
2022-11-28T00:00:10.789Z,5.00
2022-11-28T00:01:28.517Z,4.80
2022-11-28T00:02:20.043Z,4.70
2022-11-28T00:03:11.721Z,4.80
2022-11-28T00:04:03.703Z,5.10
2022-11-28T00:04:55.549Z,4.30
2022-11-28T00:05:47.303Z,5.80
2022-11-28T00:07:30.404Z,4.20
2022-11-28T00:08:21.996Z,5.00
2022-11-28T00:09:14.191Z,4.30
2022-11-28T00:10:07.208Z,6.10
2022-11-28T00:10:59.033Z,4.20
2022-11-28T00:11:50.898Z,4.70
2022-11-28T00:12:42.383Z,4.70
2022-11-28T00:13:34.087Z,4.70
2022-11-28T00:14:25.462Z,4.80
2022-11-28T00:15:16.740Z,4.70
2022-11-28T00:16:09.323Z,4.50
2022-11-28T00:17:01.249Z,4.60
2022-11-28T00:17:52.588Z,5.00
2022-11-28T00:18:44.256Z,5.90
2022-11-28T00:20:27.035Z,4.30
2022-11-28T00:21:19.063Z,4.20
2022-11-28T00:23:03.591Z,3.80
2022-11-28T00:24:46.729Z,4.30
2022-11-28T00:26:31.882Z,4.00
2022-11-28T00:27:24.733Z,4.40
2022-11-28T00:28:16.468Z,4.40
2022-11-28T00:29:08.688Z,4.90
2022-11-28T00:30:00.107Z,4.90
2022-11-28T00:30:52.022Z,5.20
2022-11-28T00:32:35.452Z,4.30
2022-11-28T00:33:27.033Z,5.20
2022-11-28T00:34:18.573Z,5.50
2022-11-28T00:36:02.787Z,4.40
2022-11-28T00:36:54.177Z,4.80
2022-11-28T00:37:45.832Z,4.50
2022-11-28T00:38:37.428Z,4.80
2022-11-28T00:39:29.021Z,5.40
2022-11-28T00:40:20.655Z,5.00
2022-11-28T00:41:16.472Z,4.60
2022-11-28T00:42:08.061Z,4.10
2022-11-28T00:42:59.648Z,5.00
2022-11-28T00:43:51.736Z,5.00
2022-11-28T00:44:43.551Z,5.70
2022-11-28T00:45:35.077Z,5.30
2022-11-28T00:46:26.966Z,5.20
2022-11-28T00:48:09.591Z,4.70
2022-11-28T00:49:00.977Z,4.60
2022-11-28T00:49:52.280Z,4.10
2022-11-28T00:50:43.905Z,6.00
2022-11-28T00:51:36.026Z,4.80
2022-11-28T00:52:27.847Z,4.30
2022-11-28T00:53:19.279Z,4.40
2022-11-28T00:54:10.958Z,5.30
2022-11-28T00:55:02.967Z,5.40
2022-11-28T00:55:54.172Z,5.40
2022-11-28T00:56:45.645Z,4.50
2022-11-28T00:57:36.996Z,5.00
2022-11-28T00:58:27.989Z,4.80
2022-11-28T00:59:19.578Z,4.90
2022-11-28T01:00:11.385Z,4.70
2022-11-28T01:01:16.826Z,4.10
2022-11-28T01:02:08.613Z,4.50
2022-11-28T01:03:00.229Z,4.00
2022-11-28T01:03:52.889Z,5.20
2022-11-28T01:04:44.962Z,3.90
2022-11-28T01:05:39.899Z,5.80
2022-11-28T01:06:32.701Z,4.40
2022-11-28T01:07:24.736Z,3.70
2022-11-28T01:08:16.339Z,4.60
2022-11-28T01:09:10.647Z,5.20
2022-11-28T01:10:01.971Z,4.40
2022-11-28T01:10:53.779Z,4.30
2022-11-28T01:11:45.835Z,5.00
2022-11-28T01:12:37.422Z,5.00
2022-11-28T01:13:29.443Z,3.90
2022-11-28T01:15:12.977Z,4.50
2022-11-28T01:16:04.531Z,4.20
2022-11-28T01:16:56.499Z,4.20
2022-11-28T01:17:48.345Z,4.30
2022-11-28T01:18:39.971Z,5.30
2022-11-28T01:19:31.628Z,5.00
2022-11-28T01:20:23.097Z,4.60
2022-11-28T01:21:14.587Z,4.20
2022-11-28T01:22:06.493Z,4.60
2022-11-28T01:23:48.828Z,4.70
2022-11-28T01:24:40.295Z,5.40
2022-11-28T01:25:31.648Z,5.00
2022-11-28T01:26:24.612Z,5.70
2022-11-28T01:27:15.804Z,4.30
2022-11-28T01:28:06.983Z,4.90
2022-11-28T01:28:59.134Z,5.30
2022-11-28T01:29:50.636Z,4.30
2022-11-28T01:30:41.959Z,5.00
2022-11-28T01:31:33.674Z,4.80
2022-11-28T01:32:25.022Z,4.90
2022-11-28T01:33:16.651Z,4.80
2022-11-28T01:34:07.849Z,5.30
2022-11-28T01:34:59.015Z,5.30
2022-11-28T01:35:57.071Z,5.10
2022-11-28T01:36:48.224Z,4.90
2022-11-28T01:37:40.080Z,5.20
2022-11-28T01:38:31.530Z,4.30
2022-11-28T01:39:22.759Z,5.30
2022-11-28T01:40:14.350Z,4.90
2022-11-28T01:41:06.561Z,4.60
2022-11-28T01:41:57.960Z,4.90
2022-11-28T01:42:49.547Z,5.30
2022-11-28T01:43:59.559Z,5.20
2022-11-28T01:44:53.950Z,5.00
2022-11-28T01:45:45.328Z,6.00
2022-11-28T01:46:36.788Z,4.60
2022-11-28T01:48:25.143Z,4.10
2022-11-28T01:49:16.116Z,4.80
2022-11-28T01:50:08.148Z,4.90
2022-11-28T01:51:01.116Z,4.90
2022-11-28T01:51:54.592Z,4.80
2022-11-28T01:52:47.780Z,4.60
2022-11-28T01:53:42.752Z,5.10
2022-11-28T01:54:35.402Z,5.00
2022-11-28T01:55:29.090Z,5.00
2022-11-28T01:56:28.578Z,4.70
2022-11-28T01:57:23.905Z,4.50
2022-11-28T01:58:15.182Z,4.60
2022-11-28T01:59:08.615Z,5.30
2022-11-28T02:00:04.431Z,5.90
2022-11-28T02:01:04.591Z,4.20
2022-11-28T02:01:56.236Z,5.00
2022-11-28T02:02:52.654Z,5.40
2022-11-28T02:03:45.189Z,4.80
2022-11-28T02:04:36.615Z,5.50
2022-11-28T02:05:27.987Z,5.00
2022-11-28T02:06:21.085Z,5.10
2022-11-28T02:07:12.800Z,6.40
2022-11-28T02:08:05.346Z,4.70
2022-11-28T02:08:56.492Z,4.40
2022-11-28T02:09:47.792Z,5.70
2022-11-28T02:10:58.112Z,5.20
2022-11-28T02:11:55.140Z,4.70
2022-11-28T02:13:04.909Z,5.50
2022-11-28T02:14:14.787Z,5.40
2022-11-28T02:15:15.100Z,4.80
2022-11-28T02:16:10.848Z,4.70
2022-11-28T02:17:30.924Z,6.60
2022-11-28T02:18:24.844Z,5.20
2022-11-28T02:19:45.965Z,5.10
2022-11-28T02:20:37.318Z,4.60
2022-11-28T02:21:51.586Z,5.50
2022-11-28T02:22:52.635Z,6.50
2022-11-28T02:23:44.118Z,5.30
2022-11-28T02:24:52.523Z,6.00
2022-11-28T02:26:01.169Z,5.10
2022-11-28T02:27:11.179Z,4.80
2022-11-28T02:28:22.483Z,5.10
2022-11-28T02:29:13.712Z,5.60
2022-11-28T02:30:14.657Z,5.60
2022-11-28T02:31:06.044Z,6.80
2022-11-28T02:32:10.173Z,6.10
2022-11-28T02:33:16.705Z,5.10
2022-11-28T02:34:22.269Z,4.80
2022-11-28T02:35:48.590Z,4.70
2022-11-28T02:36:47.488Z,5.50
2022-11-28T02:37:41.635Z,5.60
2022-11-28T02:38:33.412Z,5.50
2022-11-28T02:39:31.559Z,5.20
2022-11-28T02:40:26.028Z,4.60
2022-11-28T02:41:30.706Z,5.30
2022-11-28T02:42:24.486Z,5.00
2022-11-28T02:43:21.682Z,4.90
2022-11-28T02:44:15.877Z,5.50
2022-11-28T02:45:09.897Z,5.00
2022-11-28T02:46:06.781Z,5.30
2022-11-28T02:47:11.787Z,5.00
2022-11-28T02:48:04.306Z,5.00
2022-11-28T02:48:57.644Z,5.20
2022-11-28T02:49:56.408Z,5.40
2022-11-28T02:50:51.129Z,4.70
2022-11-28T02:51:46.162Z,4.70
2022-11-28T02:52:43.960Z,4.40
2022-11-28T02:53:36.650Z,5.20
2022-11-28T02:54:28.924Z,5.30
2022-11-28T02:55:20.548Z,5.50
2022-11-28T02:56:12.511Z,5.20
2022-11-28T02:57:04.258Z,6.40
2022-11-28T02:57:55.828Z,5.20
2022-11-28T02:58:47.103Z,4.70
2022-11-28T02:59:38.681Z,5.90
2022-11-28T03:00:31.737Z,5.50
2022-11-28T03:01:25.647Z,4.80
2022-11-28T03:02:19.849Z,4.80
2022-11-28T03:03:23.670Z,4.80
2022-11-28T03:04:19.083Z,5.10
2022-11-28T03:05:21.047Z,4.50
2022-11-28T03:06:16.018Z,4.30
2022-11-28T03:07:19.166Z,4.60
2022-11-28T03:08:22.498Z,6.60
2022-11-28T03:09:26.104Z,4.40
2022-11-28T03:10:30.449Z,4.80
2022-11-28T03:12:20.696Z,4.30
2022-11-28T03:13:12.236Z,5.50
2022-11-28T03:14:03.630Z,5.20
2022-11-28T03:14:56.543Z,5.10
2022-11-28T03:15:56.904Z,4.50
2022-11-28T03:17:08.336Z,4.40
2022-11-28T03:17:59.778Z,4.50
2022-11-28T03:19:06.555Z,4.40
2022-11-28T03:19:57.961Z,4.00
2022-11-28T03:20:55.256Z,5.20
2022-11-28T03:21:48.921Z,4.40
2022-11-28T03:22:46.430Z,3.70
2022-11-28T03:23:38.063Z,4.40
2022-11-28T03:24:55.368Z,4.50
2022-11-28T03:25:55.307Z,5.00
2022-11-28T03:27:05.141Z,4.10
2022-11-28T03:28:03.621Z,4.60
2022-11-28T03:28:59.310Z,4.00
2022-11-28T03:29:55.433Z,4.00
2022-11-28T03:30:49.075Z,4.20
2022-11-28T03:31:46.565Z,4.10
2022-11-28T03:32:38.696Z,4.60
2022-11-28T03:33:37.719Z,4.30
2022-11-28T03:34:32.603Z,3.70
2022-11-28T03:35:26.405Z,3.90
2022-11-28T03:36:22.263Z,4.70
2022-11-28T03:37:16.078Z,4.80
2022-11-28T03:38:11.147Z,4.20
2022-11-28T03:39:04.967Z,4.30
2022-11-28T03:40:00.528Z,4.40
2022-11-28T03:40:54.042Z,4.00
2022-11-28T03:41:54.522Z,4.10
2022-11-28T03:42:48.494Z,4.30
2022-11-28T03:43:42.976Z,5.10
2022-11-28T03:44:40.074Z,4.00
2022-11-28T03:45:38.013Z,4.40
2022-11-28T03:47:21.190Z,4.70
2022-11-28T03:48:31.806Z,5.20
2022-11-28T03:50:17.973Z,4.30
2022-11-28T03:51:15.708Z,4.00
2022-11-28T03:52:10.692Z,4.20
2022-11-28T03:53:08.400Z,4.50
2022-11-28T03:54:01.687Z,4.40
2022-11-28T03:54:54.521Z,4.50
2022-11-28T03:55:49.390Z,4.50
2022-11-28T03:56:46.377Z,5.30
2022-11-28T03:57:43.010Z,4.60
2022-11-28T03:58:36.872Z,5.00
2022-11-28T03:59:33.416Z,4.80
2022-11-28T04:00:25.166Z,4.80
2022-11-28T04:01:22.670Z,5.60
2022-11-28T04:02:19.622Z,4.80
2022-11-28T04:03:21.725Z,5.20
2022-11-28T04:04:31.418Z,5.10
2022-11-28T04:05:24.798Z,5.10
2022-11-28T04:06:27.977Z,5.60
2022-11-28T04:07:38.307Z,4.40
2022-11-28T04:08:32.282Z,4.60
2022-11-28T04:09:34.432Z,4.40
2022-11-28T04:10:34.741Z,5.00
2022-11-28T04:11:31.090Z,5.10
2022-11-28T04:12:32.379Z,4.90
2022-11-28T04:13:26.854Z,5.10
2022-11-28T04:14:20.473Z,4.20
2022-11-28T04:15:17.045Z,4.50
2022-11-28T04:16:12.865Z,5.10
2022-11-28T04:17:08.152Z,4.60
2022-11-28T04:18:02.409Z,6.00
2022-11-28T04:18:56.678Z,5.10
2022-11-28T04:19:50.767Z,5.10
2022-11-28T04:20:43.894Z,5.30
2022-11-28T04:21:44.312Z,5.30
2022-11-28T04:22:42.687Z,6.20
2022-11-28T04:23:35.971Z,5.70
2022-11-28T04:24:30.734Z,6.00
2022-11-28T04:25:23.672Z,5.50
2022-11-28T04:26:23.071Z,4.80
2022-11-28T04:28:11.882Z,4.80
2022-11-28T04:29:06.228Z,5.70
2022-11-28T04:30:01.375Z,5.10
2022-11-28T04:30:53.577Z,5.50
2022-11-28T04:31:46.221Z,5.50
2022-11-28T04:32:39.315Z,5.20
2022-11-28T04:33:33.052Z,5.30
2022-11-28T04:34:25.676Z,6.00
2022-11-28T04:35:23.747Z,5.60
2022-11-28T04:36:16.751Z,5.50
2022-11-28T04:37:10.000Z,5.20
2022-11-28T04:38:03.025Z,6.30
2022-11-28T04:38:56.646Z,5.30
2022-11-28T04:39:49.422Z,5.10
2022-11-28T04:40:44.587Z,5.90
2022-11-28T04:41:39.745Z,6.30
2022-11-28T04:42:35.382Z,5.60
2022-11-28T04:43:29.695Z,6.00
2022-11-28T04:44:24.403Z,6.40
2022-11-28T04:45:23.402Z,5.90
2022-11-28T04:46:17.250Z,5.50
2022-11-28T04:47:09.962Z,6.00
2022-11-28T04:48:02.285Z,5.80
2022-11-28T04:48:54.081Z,6.30
2022-11-28T04:49:45.669Z,4.90
2022-11-28T04:50:50.259Z,5.20
2022-11-28T04:51:49.058Z,5.90
2022-11-28T04:52:59.465Z,5.00
2022-11-28T04:53:51.210Z,6.10
2022-11-28T04:54:52.435Z,6.00
2022-11-28T04:55:46.747Z,5.80
2022-11-28T04:56:44.463Z,6.00
2022-11-28T04:57:37.725Z,5.60
2022-11-28T04:58:36.285Z,5.50
2022-11-28T04:59:29.793Z,5.20
2022-11-28T05:00:21.445Z,6.70
2022-11-28T05:02:04.972Z,4.90
2022-11-28T05:02:56.689Z,5.70
2022-11-28T05:03:48.132Z,6.80
2022-11-28T05:04:40.100Z,5.30
2022-11-28T05:05:31.748Z,5.50
2022-11-28T05:06:24.564Z,5.60
2022-11-28T05:07:15.887Z,6.00
2022-11-28T05:08:07.247Z,6.80
2022-11-28T05:08:58.707Z,5.40
2022-11-28T05:09:50.371Z,6.00
2022-11-28T05:10:42.090Z,5.10
2022-11-28T05:11:33.310Z,5.80
2022-11-28T05:12:24.825Z,5.20
2022-11-28T05:13:16.053Z,5.70
2022-11-28T05:14:07.300Z,5.30
2022-11-28T05:14:58.719Z,5.60
2022-11-28T05:15:50.539Z,5.10
2022-11-28T05:16:41.909Z,5.60
2022-11-28T05:17:36.581Z,5.50
2022-11-28T05:18:30.181Z,5.20
2022-11-28T05:19:21.249Z,5.90
2022-11-28T05:20:12.526Z,5.70
2022-11-28T05:21:06.637Z,5.70
2022-11-28T05:21:57.846Z,5.00
2022-11-28T05:22:48.907Z,6.30
2022-11-28T05:23:41.634Z,5.50
2022-11-28T05:24:32.847Z,5.00
2022-11-28T05:25:24.399Z,6.00
2022-11-28T05:26:20.924Z,6.00
2022-11-28T05:27:12.440Z,5.60
2022-11-28T05:28:04.210Z,6.30
2022-11-28T05:28:56.932Z,5.60
2022-11-28T05:29:52.235Z,6.00
2022-11-28T05:30:44.017Z,6.10
2022-11-28T05:31:35.469Z,5.40
2022-11-28T05:32:29.206Z,6.00
2022-11-28T05:33:20.966Z,6.30
2022-11-28T05:34:12.091Z,6.20
2022-11-28T05:35:04.162Z,6.20
2022-11-28T05:35:55.742Z,5.80
2022-11-28T05:36:46.903Z,7.40
2022-11-28T05:37:38.338Z,5.70
2022-11-28T05:38:31.285Z,5.80
2022-11-28T05:39:22.682Z,5.90
2022-11-28T05:40:14.143Z,6.00
2022-11-28T05:41:05.687Z,8.10
2022-11-28T05:41:57.761Z,5.60
2022-11-28T05:43:40.503Z,5.00
2022-11-28T05:44:32.119Z,6.00
2022-11-28T05:45:24.339Z,5.60
2022-11-28T05:46:16.250Z,5.40
2022-11-28T05:47:07.632Z,6.20
2022-11-28T05:47:59.105Z,5.80
2022-11-28T05:48:50.341Z,6.00
2022-11-28T05:49:42.056Z,5.90
2022-11-28T05:50:39.660Z,6.30
2022-11-28T05:51:31.732Z,6.40
2022-11-28T05:52:23.250Z,6.40
2022-11-28T05:53:14.340Z,6.90
2022-11-28T05:54:05.868Z,5.90
2022-11-28T05:55:48.483Z,5.80
2022-11-28T05:56:42.536Z,5.60
2022-11-28T05:57:34.441Z,5.80
2022-11-28T05:58:25.827Z,5.20
2022-11-28T05:59:17.144Z,6.50
2022-11-28T06:00:08.734Z,5.90
2022-11-28T06:01:10.410Z,5.40
2022-11-28T06:02:01.986Z,6.00
2022-11-28T06:02:57.085Z,6.70
2022-11-28T06:03:52.092Z,6.00
2022-11-28T06:04:43.698Z,6.60
2022-11-28T06:05:42.757Z,6.10
2022-11-28T06:06:35.618Z,6.20
2022-11-28T06:07:27.277Z,5.20
2022-11-28T06:08:18.304Z,6.60
2022-11-28T06:09:09.814Z,6.30
2022-11-28T06:10:58.511Z,6.80
2022-11-28T06:11:49.854Z,5.80
2022-11-28T06:12:40.985Z,6.20
2022-11-28T06:13:32.316Z,6.50
2022-11-28T06:14:24.319Z,6.20
2022-11-28T06:15:15.574Z,7.40
2022-11-28T06:16:10.546Z,6.70
2022-11-28T06:17:02.214Z,6.40
2022-11-28T06:17:53.623Z,6.50
2022-11-28T06:18:45.251Z,7.00
2022-11-28T06:19:36.445Z,6.70
2022-11-28T06:20:27.746Z,7.10
2022-11-28T06:21:18.906Z,8.10
2022-11-28T06:22:10.059Z,6.20
2022-11-28T06:23:01.675Z,6.00
2022-11-28T06:23:53.620Z,6.10
2022-11-28T06:24:45.127Z,6.50
2022-11-28T06:25:36.701Z,6.20
2022-11-28T06:26:28.668Z,7.20
2022-11-28T06:27:20.270Z,5.50
2022-11-28T06:28:11.659Z,5.30
2022-11-28T06:29:03.224Z,5.20
2022-11-28T06:29:56.764Z,5.50
2022-11-28T06:30:47.872Z,6.70
2022-11-28T06:31:39.348Z,5.90
2022-11-28T06:32:30.937Z,5.80
2022-11-28T06:33:22.243Z,5.60
2022-11-28T06:34:13.869Z,7.30
2022-11-28T06:35:05.725Z,5.70
2022-11-28T06:36:01.075Z,5.80
2022-11-28T06:36:52.612Z,5.50
2022-11-28T06:37:44.122Z,5.10
2022-11-28T06:38:35.763Z,6.10
2022-11-28T06:39:27.405Z,6.50
2022-11-28T06:40:18.895Z,7.50
2022-11-28T06:41:11.650Z,6.00
2022-11-28T06:42:03.362Z,5.70
2022-11-28T06:42:54.426Z,6.30
2022-11-28T06:43:45.752Z,5.90
2022-11-28T06:44:37.128Z,6.30
2022-11-28T06:45:28.574Z,6.90
2022-11-28T06:46:21.218Z,6.80
2022-11-28T06:47:12.788Z,6.10
2022-11-28T06:48:04.389Z,7.20
2022-11-28T06:48:55.716Z,6.70
2022-11-28T06:49:47.969Z,6.00
2022-11-28T06:50:39.304Z,5.90
2022-11-28T06:51:30.777Z,6.20
2022-11-28T06:52:22.077Z,7.40
2022-11-28T06:53:13.713Z,6.90
2022-11-28T06:54:06.132Z,5.80
2022-11-28T06:54:57.219Z,6.10
2022-11-28T06:55:48.822Z,7.00
2022-11-28T06:56:41.277Z,6.20
2022-11-28T06:57:33.002Z,6.30
2022-11-28T06:58:24.521Z,6.30
2022-11-28T06:59:16.119Z,6.70
2022-11-28T07:00:08.367Z,7.00
2022-11-28T07:01:51.123Z,6.50
2022-11-28T07:02:42.780Z,6.80
2022-11-28T07:03:34.028Z,6.20
2022-11-28T07:04:25.395Z,6.00
2022-11-28T07:05:16.786Z,7.20
2022-11-28T07:06:08.338Z,6.20
2022-11-28T07:07:02.279Z,6.10
2022-11-28T07:07:54.752Z,5.40
2022-11-28T07:08:46.632Z,6.20
2022-11-28T07:09:38.366Z,9.10
2022-11-28T07:10:29.919Z,7.20
2022-11-28T07:11:23.674Z,6.60
2022-11-28T07:12:15.298Z,5.60
2022-11-28T07:13:07.681Z,5.90
2022-11-28T07:14:02.649Z,7.10
2022-11-28T07:14:57.308Z,6.50
2022-11-28T07:15:50.163Z,6.40
2022-11-28T07:16:41.864Z,6.50
2022-11-28T07:17:34.290Z,6.60
2022-11-28T07:18:25.688Z,8.30
2022-11-28T07:19:22.812Z,6.50
2022-11-28T07:20:14.542Z,7.50
2022-11-28T07:21:06.078Z,7.60
2022-11-28T07:21:57.581Z,6.50
2022-11-28T07:22:49.224Z,7.20
2022-11-28T07:23:41.712Z,7.00
2022-11-28T07:24:33.519Z,7.10
2022-11-28T07:25:24.826Z,6.60
2022-11-28T07:26:17.778Z,7.80
2022-11-28T07:27:09.168Z,6.10
2022-11-28T07:28:52.687Z,5.50
2022-11-28T07:29:44.896Z,6.00
2022-11-28T07:30:36.841Z,7.30
2022-11-28T07:31:32.353Z,6.80
2022-11-28T07:32:24.314Z,6.80
2022-11-28T07:33:15.728Z,8.60
2022-11-28T07:34:09.458Z,7.00
2022-11-28T07:35:00.971Z,7.40
2022-11-28T07:35:52.360Z,6.10
2022-11-28T07:36:43.814Z,6.60
2022-11-28T07:37:35.650Z,7.30
2022-11-28T07:38:27.037Z,5.60
2022-11-28T07:39:18.542Z,6.00
2022-11-28T07:40:10.260Z,6.10
2022-11-28T07:41:08.974Z,6.70
2022-11-28T07:42:11.245Z,5.50
2022-11-28T07:43:02.614Z,5.80
2022-11-28T07:43:59.065Z,5.40
2022-11-28T07:44:50.442Z,5.70
2022-11-28T07:46:00.068Z,6.50
2022-11-28T07:46:52.879Z,5.90
2022-11-28T07:47:44.555Z,6.80
2022-11-28T07:48:36.867Z,6.90
2022-11-28T07:49:30.151Z,6.40
2022-11-28T07:50:21.476Z,6.70
2022-11-28T07:51:14.394Z,6.20
2022-11-28T07:52:05.980Z,6.10
2022-11-28T07:53:00.696Z,5.80
2022-11-28T07:53:54.247Z,5.10
2022-11-28T07:54:45.676Z,6.70
2022-11-28T07:55:36.817Z,7.60
2022-11-28T07:56:44.292Z,7.70
2022-11-28T07:57:40.876Z,6.70
2022-11-28T07:58:33.477Z,6.50
2022-11-28T07:59:25.075Z,5.40
2022-11-28T08:00:16.828Z,6.20
2022-11-28T08:01:11.685Z,6.50
2022-11-28T08:02:03.705Z,6.50
2022-11-28T08:02:55.902Z,6.50
2022-11-28T08:03:47.435Z,6.90
2022-11-28T08:04:43.736Z,6.90
2022-11-28T08:05:39.335Z,6.30
2022-11-28T08:08:13.376Z,6.60
2022-11-28T08:09:05.137Z,6.70
2022-11-28T08:09:56.694Z,6.20
2022-11-28T08:10:48.084Z,6.70
2022-11-28T08:11:39.772Z,6.00
2022-11-28T08:12:30.981Z,6.70
2022-11-28T08:13:22.074Z,7.40
2022-11-28T08:14:14.314Z,7.10
2022-11-28T08:15:05.637Z,6.40
2022-11-28T08:15:56.800Z,6.60
2022-11-28T08:16:49.569Z,6.20
2022-11-28T08:17:40.858Z,6.80
2022-11-28T08:18:32.572Z,7.30
2022-11-28T08:19:24.894Z,6.60
2022-11-28T08:20:16.299Z,6.50
2022-11-28T08:21:12.039Z,7.10
2022-11-28T08:22:03.386Z,6.70
2022-11-28T08:22:54.941Z,7.30
2022-11-28T08:23:46.256Z,6.50
2022-11-28T08:25:29.386Z,6.00
2022-11-28T08:26:23.905Z,6.00
2022-11-28T08:27:17.576Z,6.80
2022-11-28T08:28:09.266Z,6.50
2022-11-28T08:29:11.041Z,6.50
2022-11-28T08:30:02.636Z,6.30
2022-11-28T08:30:54.191Z,6.90
2022-11-28T08:31:45.869Z,6.90
2022-11-28T08:32:36.861Z,7.00
2022-11-28T08:33:28.328Z,7.40
2022-11-28T08:34:19.754Z,8.10
2022-11-28T08:35:12.027Z,7.60
2022-11-28T08:36:04.799Z,8.90
2022-11-28T08:36:56.087Z,7.60
2022-11-28T08:37:47.346Z,7.60
2022-11-28T08:38:38.948Z,7.70
2022-11-28T08:40:22.076Z,6.30
2022-11-28T08:41:14.601Z,7.30
2022-11-28T08:42:06.180Z,8.40
2022-11-28T08:42:58.479Z,7.70
2022-11-28T08:43:50.424Z,7.10
2022-11-28T08:44:41.992Z,7.60
2022-11-28T08:45:35.070Z,8.00
2022-11-28T08:46:26.659Z,7.80
2022-11-28T08:47:19.290Z,7.40
2022-11-28T08:48:10.977Z,8.00
2022-11-28T08:49:04.607Z,7.10
2022-11-28T08:49:56.248Z,8.70
2022-11-28T08:50:48.212Z,7.10
2022-11-28T08:51:39.863Z,7.60
2022-11-28T08:52:32.889Z,7.20
2022-11-28T08:53:24.211Z,7.20
2022-11-28T08:54:15.813Z,7.10
2022-11-28T08:55:07.589Z,6.60
2022-11-28T08:55:59.548Z,7.80
2022-11-28T08:56:50.832Z,7.30
2022-11-28T08:57:42.360Z,7.90
2022-11-28T08:58:33.940Z,7.20
2022-11-28T08:59:25.587Z,6.90
2022-11-28T09:00:17.208Z,7.10
2022-11-28T09:02:51.078Z,6.40
2022-11-28T09:03:42.481Z,5.80
2022-11-28T09:04:34.202Z,7.00
2022-11-28T09:05:25.080Z,8.30
2022-11-28T09:06:17.304Z,7.90
2022-11-28T09:07:08.950Z,7.00
2022-11-28T09:08:00.351Z,7.80
